createdAt,value
2018-04-23T00:01:19.834Z,20.10
2018-04-23T00:03:46.220Z,20.10
2018-04-23T00:06:12.615Z,20.10
2018-04-23T00:08:39.071Z,20.10
2018-04-23T00:11:05.520Z,20.10
2018-04-23T00:13:32.007Z,20.20
2018-04-23T00:15:58.413Z,20.10
2018-04-23T00:18:24.858Z,20.10
2018-04-23T00:20:51.276Z,20.20
2018-04-23T00:23:17.715Z,20.10
2018-04-23T00:25:44.144Z,20.00
2018-04-23T00:28:10.619Z,19.90
2018-04-23T00:30:37.731Z,19.80
2018-04-23T00:33:04.203Z,19.80
2018-04-23T00:35:31.309Z,19.80
2018-04-23T00:37:57.739Z,19.80
2018-04-23T00:40:24.143Z,19.80
2018-04-23T00:42:50.546Z,19.80
2018-04-23T00:45:17.664Z,19.60
2018-04-23T00:47:44.086Z,19.70
2018-04-23T00:50:10.435Z,19.70
2018-04-23T00:52:36.818Z,19.50
2018-04-23T00:55:03.255Z,19.50
2018-04-23T00:57:29.699Z,19.50
2018-04-23T00:59:56.077Z,19.40
2018-04-23T01:02:23.184Z,19.30
2018-04-23T01:04:49.585Z,19.30
2018-04-23T01:07:15.971Z,19.30
2018-04-23T01:09:42.339Z,19.40
2018-04-23T01:12:08.740Z,19.50
2018-04-23T01:14:35.123Z,19.40
2018-04-23T01:17:01.499Z,19.40
2018-04-23T01:19:28.615Z,19.40
2018-04-23T01:21:55.018Z,19.30
2018-04-23T01:24:21.412Z,19.30
2018-04-23T01:26:47.839Z,19.30
2018-04-23T01:29:15.642Z,19.20
2018-04-23T01:31:42.045Z,19.30
2018-04-23T01:34:09.223Z,19.20
2018-04-23T01:36:35.628Z,19.20
2018-04-23T01:39:02.828Z,19.10
2018-04-23T01:41:29.239Z,19.10
2018-04-23T01:43:55.652Z,19.00
2018-04-23T01:46:22.775Z,19.00
2018-04-23T01:48:49.948Z,19.00
2018-04-23T01:51:16.323Z,19.00
2018-04-23T01:53:42.697Z,18.90
2018-04-23T01:56:09.872Z,19.00
2018-04-23T01:58:36.241Z,18.90
2018-04-23T02:01:02.670Z,18.90
2018-04-23T02:03:29.053Z,18.80
2018-04-23T02:05:55.477Z,18.80
2018-04-23T02:08:21.852Z,18.70
2018-04-23T02:10:48.289Z,18.70
2018-04-23T02:13:14.640Z,18.50
2018-04-23T02:15:41.023Z,18.50
2018-04-23T02:18:07.432Z,18.40
2018-04-23T02:20:34.629Z,18.40
2018-04-23T02:23:01.015Z,18.40
2018-04-23T02:25:27.392Z,18.40
2018-04-23T02:27:53.802Z,18.40
2018-04-23T02:30:20.149Z,18.30
2018-04-23T02:32:46.565Z,18.40
2018-04-23T02:35:12.928Z,18.40
2018-04-23T02:37:39.346Z,18.40
2018-04-23T02:40:05.729Z,18.40
2018-04-23T02:42:32.120Z,18.40
2018-04-23T02:44:58.461Z,18.40
2018-04-23T02:47:24.822Z,18.40
2018-04-23T02:49:51.200Z,18.40
2018-04-23T02:52:17.537Z,18.40
2018-04-23T02:54:43.988Z,18.40
2018-04-23T02:57:11.186Z,18.30
2018-04-23T02:59:37.625Z,18.30
2018-04-23T03:02:03.983Z,18.30
2018-04-23T03:04:30.420Z,18.30
2018-04-23T03:06:56.848Z,18.30
2018-04-23T03:09:23.256Z,18.30
2018-04-23T03:11:49.665Z,18.30
2018-04-23T03:14:16.121Z,18.30
2018-04-23T03:16:42.502Z,18.30
2018-04-23T03:19:08.921Z,18.20
2018-04-23T03:21:36.072Z,18.20
2018-04-23T03:24:02.481Z,18.20
2018-04-23T03:26:28.850Z,18.30
2018-04-23T03:28:55.240Z,18.30
2018-04-23T03:31:21.639Z,18.40
2018-04-23T03:33:48.037Z,18.40
2018-04-23T03:36:15.216Z,18.40
2018-04-23T03:38:41.596Z,18.40
2018-04-23T03:41:08.042Z,18.30
2018-04-23T03:43:34.480Z,18.20
2018-04-23T03:46:01.631Z,18.30
2018-04-23T03:48:28.013Z,18.30
2018-04-23T03:50:54.435Z,18.40
2018-04-23T03:53:20.804Z,18.40
2018-04-23T03:55:47.215Z,18.40
2018-04-23T03:58:13.588Z,18.30
2018-04-23T04:00:40.001Z,18.30
2018-04-23T04:03:06.420Z,18.30
2018-04-23T04:05:32.790Z,18.30
2018-04-23T04:07:59.243Z,18.30
2018-04-23T04:10:25.633Z,18.40
2018-04-23T04:13:10.345Z,18.50
2018-04-23T04:15:54.924Z,18.60
2018-04-23T04:18:40.571Z,18.60
2018-04-23T04:21:06.923Z,18.60
2018-04-23T04:23:33.316Z,18.60
2018-04-23T04:25:59.722Z,18.60
2018-04-23T04:28:26.871Z,18.80
2018-04-23T04:30:54.020Z,18.80
2018-04-23T04:33:21.200Z,18.80
2018-04-23T04:35:47.621Z,18.80
2018-04-23T04:38:14.032Z,18.80
2018-04-23T04:40:41.257Z,18.90
2018-04-23T04:43:07.652Z,18.80
2018-04-23T04:45:34.056Z,18.70
2018-04-23T04:48:00.433Z,18.70
2018-04-23T04:50:27.592Z,18.80
2018-04-23T04:52:54.033Z,18.80
2018-04-23T04:55:20.491Z,18.80
2018-04-23T04:57:47.622Z,18.70
2018-04-23T05:00:14.037Z,18.70
2018-04-23T05:02:40.396Z,18.80
2018-04-23T05:05:06.871Z,18.70
2018-04-23T05:07:33.264Z,18.80
2018-04-23T05:09:59.685Z,18.80
2018-04-23T05:12:26.047Z,18.80
2018-04-23T05:14:52.459Z,18.80
2018-04-23T05:17:18.937Z,18.60
2018-04-23T05:19:52.184Z,18.70
2018-04-23T05:22:19.283Z,18.70
2018-04-23T05:24:45.781Z,18.70
2018-04-23T05:27:13.217Z,18.80
2018-04-23T05:29:39.750Z,18.80
2018-04-23T05:32:06.867Z,18.80
2018-04-23T05:34:33.336Z,18.80
2018-04-23T05:36:59.839Z,18.80
2018-04-23T05:39:26.303Z,18.90
2018-04-23T05:41:52.738Z,19.00
2018-04-23T05:44:19.203Z,19.00
2018-04-23T05:46:45.673Z,19.10
2018-04-23T05:49:19.042Z,19.10
2018-04-23T05:51:45.435Z,19.20
2018-04-23T05:54:11.855Z,19.30
2018-04-23T05:56:38.281Z,19.30
2018-04-23T05:59:04.660Z,19.30
2018-04-23T06:01:31.152Z,19.30
2018-04-23T06:03:57.577Z,19.40
2018-04-23T06:06:24.830Z,19.40
2018-04-23T06:08:51.218Z,19.40
2018-04-23T06:11:17.622Z,19.40
2018-04-23T06:13:43.984Z,19.50
2018-04-23T06:16:11.200Z,19.60
2018-04-23T06:18:38.334Z,19.70
2018-04-23T06:21:04.752Z,19.70
2018-04-23T06:23:31.951Z,19.80
2018-04-23T06:25:58.391Z,19.70
2018-04-23T06:28:24.866Z,19.80
2018-04-23T06:30:51.296Z,19.80
2018-04-23T06:33:18.465Z,19.90
2018-04-23T06:35:44.892Z,19.90
2018-04-23T06:38:11.284Z,19.90
2018-04-23T06:40:37.664Z,19.90
2018-04-23T06:43:04.136Z,20.00
2018-04-23T06:45:30.535Z,20.00
2018-04-23T06:47:56.952Z,20.00
2018-04-23T06:50:23.333Z,20.10
2018-04-23T06:52:49.765Z,20.10
2018-04-23T06:55:16.132Z,20.20
2018-04-23T06:57:42.513Z,20.20
2018-04-23T07:00:08.945Z,20.10
2018-04-23T07:02:36.105Z,20.10
2018-04-23T07:05:02.595Z,20.10
2018-04-23T07:07:28.987Z,20.10
2018-04-23T07:09:56.133Z,20.00
2018-04-23T07:12:22.550Z,20.00
2018-04-23T07:14:48.965Z,20.00
2018-04-23T07:17:15.374Z,20.00
2018-04-23T07:19:41.796Z,20.10
2018-04-23T07:22:08.233Z,20.10
2018-04-23T07:24:34.670Z,20.20
2018-04-23T07:27:01.092Z,20.20
2018-04-23T07:29:27.486Z,20.30
2018-04-23T07:31:53.907Z,20.40
2018-04-23T07:34:21.155Z,20.50
2018-04-23T07:36:47.548Z,20.60
2018-04-23T07:39:13.948Z,20.60
2018-04-23T07:41:40.387Z,20.70
2018-04-23T07:44:06.784Z,20.80
2018-04-23T07:46:33.959Z,20.70
2018-04-23T07:49:00.389Z,20.70
2018-04-23T07:51:26.775Z,20.80
2018-04-23T07:53:53.204Z,20.80
2018-04-23T07:56:19.649Z,20.90
2018-04-23T07:58:46.057Z,20.90
2018-04-23T08:01:12.536Z,21.00
2018-04-23T08:03:38.962Z,21.00
2018-04-23T08:06:06.128Z,21.20
2018-04-23T08:08:33.337Z,21.10
2018-04-23T08:10:59.748Z,21.10
2018-04-23T08:13:26.172Z,21.10
2018-04-23T08:15:52.598Z,20.80
2018-04-23T08:18:19.671Z,20.70
2018-04-23T08:20:46.137Z,20.50
2018-04-23T08:23:12.558Z,20.40
2018-04-23T08:25:39.709Z,20.00
2018-04-23T08:28:06.900Z,19.80
2018-04-23T08:30:33.329Z,19.70
2018-04-23T08:32:59.740Z,19.70
2018-04-23T08:35:26.137Z,19.80
2018-04-23T08:37:52.540Z,19.80
2018-04-23T08:40:18.910Z,19.80
2018-04-23T08:42:45.344Z,19.40
2018-04-23T08:45:11.851Z,19.10
2018-04-23T08:47:38.360Z,18.90
2018-04-23T08:50:04.920Z,18.70
2018-04-23T08:52:31.361Z,18.60
2018-04-23T08:54:57.821Z,18.40
2018-04-23T08:57:24.212Z,18.20
2018-04-23T08:59:50.627Z,18.20
2018-04-23T09:02:17.087Z,18.20
2018-04-23T09:04:43.585Z,18.30
2018-04-23T09:07:10.047Z,18.50
2018-04-23T09:09:36.450Z,18.60
2018-04-23T09:12:02.916Z,18.50
2018-04-23T09:14:29.374Z,18.80
2018-04-23T09:16:56.545Z,19.10
2018-04-23T09:19:23.181Z,19.10
2018-04-23T09:21:49.650Z,19.10
2018-04-23T09:24:16.148Z,19.10
2018-04-23T09:26:43.593Z,19.30
2018-04-23T09:29:10.187Z,19.40
2018-04-23T09:31:36.760Z,19.50
2018-04-23T09:34:03.178Z,19.50
2018-04-23T09:36:29.595Z,19.50
2018-04-23T09:38:56.025Z,19.00
2018-04-23T09:41:22.400Z,19.10
2018-04-23T09:43:48.815Z,19.10
2018-04-23T09:46:15.335Z,19.00
2018-04-23T09:48:41.783Z,19.00
2018-04-23T09:51:08.284Z,19.20
2018-04-23T09:53:34.706Z,19.50
2018-04-23T09:56:01.170Z,19.50
2018-04-23T09:58:27.690Z,19.70
2018-04-23T10:00:54.216Z,19.90
2018-04-23T10:03:24.661Z,20.00
2018-04-23T10:05:51.910Z,19.80
2018-04-23T10:08:18.341Z,19.80
2018-04-23T10:10:44.845Z,20.00
2018-04-23T10:13:11.294Z,20.10
2018-04-23T10:15:37.744Z,20.00
2018-04-23T10:18:04.188Z,20.10
2018-04-23T10:20:30.579Z,19.90
2018-04-23T10:22:56.973Z,20.00
2018-04-23T10:25:23.356Z,19.90
2018-04-23T10:27:49.869Z,20.00
2018-04-23T10:30:16.269Z,20.10
2018-04-23T10:32:42.753Z,19.90
2018-04-23T10:35:09.932Z,19.30
2018-04-23T10:37:36.538Z,19.30
2018-04-23T10:40:03.109Z,19.10
2018-04-23T10:42:29.616Z,18.80
2018-04-23T10:44:56.737Z,18.40
2018-04-23T10:47:23.191Z,18.40
2018-04-23T10:49:50.334Z,18.40
2018-04-23T10:52:16.820Z,18.40
2018-04-23T10:54:43.295Z,18.50
2018-04-23T10:57:09.790Z,18.50
2018-04-23T10:59:37.150Z,18.60
2018-04-23T11:02:03.572Z,18.60
2018-04-23T11:04:30.060Z,18.60
2018-04-23T11:06:57.993Z,18.80
2018-04-23T11:09:24.440Z,18.80
2018-04-23T11:11:50.846Z,18.90
2018-04-23T11:14:17.337Z,18.90
2018-04-23T11:16:43.745Z,19.00
2018-04-23T11:19:10.236Z,19.00
2018-04-23T11:24:10.590Z,19.00
2018-04-23T11:26:36.979Z,19.00
2018-04-23T11:29:03.467Z,19.10
2018-04-23T11:31:29.850Z,19.10
2018-04-23T11:33:56.343Z,19.00
2018-04-23T11:36:23.532Z,19.10
2018-04-23T11:38:50.116Z,19.00
2018-04-23T11:41:17.377Z,19.10
2018-04-23T11:43:43.813Z,19.10
2018-04-23T11:46:11.016Z,19.10
2018-04-23T11:48:37.432Z,19.10
2018-04-23T11:51:03.926Z,18.90
2018-04-23T11:53:30.370Z,19.00
2018-04-23T11:55:57.540Z,18.80
2018-04-23T11:58:24.058Z,18.80
2018-04-23T12:00:51.214Z,18.70
2018-04-23T12:03:18.375Z,18.70
2018-04-23T12:05:44.806Z,18.70
2018-04-23T12:08:11.337Z,18.80
2018-04-23T12:10:37.821Z,18.70
2018-04-23T12:13:04.301Z,18.80
2018-04-23T12:15:30.745Z,18.90
2018-04-23T12:17:57.194Z,19.00
2018-04-23T12:20:24.040Z,19.00
2018-04-23T12:22:50.716Z,19.00
2018-04-23T12:25:17.175Z,19.10
2018-04-23T12:27:43.725Z,19.10
2018-04-23T12:30:10.275Z,19.10
2018-04-23T12:32:36.675Z,19.00
2018-04-23T12:35:03.157Z,19.00
2018-04-23T12:37:29.617Z,18.70
2018-04-23T12:39:56.772Z,18.50
2018-04-23T12:42:23.925Z,18.50
2018-04-23T12:44:50.339Z,18.50
2018-04-23T12:47:16.730Z,18.60
2018-04-23T12:49:43.127Z,18.40
2018-04-23T12:52:10.635Z,18.40
2018-04-23T12:54:37.087Z,18.40
2018-04-23T12:57:04.213Z,18.30
2018-04-23T12:59:30.721Z,18.40
2018-04-23T13:01:57.154Z,18.30
2018-04-23T13:04:23.616Z,18.20
2018-04-23T13:06:50.054Z,18.20
2018-04-23T13:09:16.544Z,18.20
2018-04-23T13:11:43.107Z,18.30
2018-04-23T13:14:09.516Z,18.40
2018-04-23T13:16:35.906Z,18.50
2018-04-23T13:19:03.041Z,18.30
2018-04-23T13:21:30.016Z,18.30
2018-04-23T13:23:56.475Z,18.30
2018-04-23T13:26:23.041Z,18.30
2018-04-23T13:28:50.157Z,18.30
2018-04-23T13:31:16.624Z,18.30
2018-04-23T13:33:43.065Z,18.30
2018-04-23T13:36:09.475Z,18.10
2018-04-23T13:38:35.927Z,18.20
2018-04-23T13:41:02.331Z,18.30
2018-04-23T13:43:28.741Z,18.40
2018-04-23T13:45:55.187Z,18.50
2018-04-23T13:48:21.602Z,18.70
2018-04-23T13:50:48.068Z,19.00
2018-04-23T13:53:14.492Z,19.10
2018-04-23T13:55:40.895Z,19.00
2018-04-23T13:58:07.404Z,19.20
2018-04-23T14:00:33.870Z,19.40
2018-04-23T14:03:00.270Z,19.50
2018-04-23T14:05:27.439Z,19.80
2018-04-23T14:07:54.901Z,19.80
2018-04-23T14:10:21.442Z,19.70
2018-04-23T14:12:47.860Z,19.70
2018-04-23T14:15:14.304Z,19.80
2018-04-23T14:17:41.455Z,19.80
2018-04-23T14:20:08.134Z,19.90
2018-04-23T14:22:34.575Z,20.00
2018-04-23T14:25:01.075Z,20.10
2018-04-23T14:27:27.520Z,20.20
2018-04-23T14:29:53.975Z,20.10
2018-04-23T14:32:20.395Z,20.00
2018-04-23T14:34:52.289Z,20.00
2018-04-23T14:37:19.661Z,20.10
2018-04-23T14:39:47.837Z,20.10
2018-04-23T14:42:14.839Z,20.20
2018-04-23T14:44:46.870Z,20.20
2018-04-23T14:47:13.258Z,20.10
2018-04-23T14:49:40.488Z,20.30
2018-04-23T14:52:07.694Z,20.60
2018-04-23T14:54:34.131Z,20.60
2018-04-23T14:57:00.566Z,20.60
2018-04-23T14:59:26.986Z,20.60
2018-04-23T15:01:53.506Z,20.50
2018-04-23T15:04:19.910Z,20.50
2018-04-23T15:06:46.448Z,20.60
2018-04-23T15:09:13.091Z,20.70
2018-04-23T15:11:39.562Z,20.80
2018-04-23T15:14:06.011Z,20.80
2018-04-23T15:16:33.156Z,20.40
2018-04-23T15:18:59.630Z,20.40
2018-04-23T15:21:26.037Z,20.10
2018-04-23T15:23:53.205Z,20.00
2018-04-23T15:26:19.619Z,20.00
2018-04-23T15:28:46.780Z,19.80
2018-04-23T15:31:13.994Z,19.70
2018-04-23T15:33:40.437Z,19.70
2018-04-23T15:36:06.882Z,19.60
2018-04-23T15:38:33.336Z,19.50
2018-04-23T15:40:59.824Z,19.30
2018-04-23T15:43:26.351Z,19.10
2018-04-23T15:45:53.582Z,19.10
2018-04-23T15:48:19.981Z,19.10
2018-04-23T15:50:46.448Z,19.00
2018-04-23T15:53:13.041Z,19.00
2018-04-23T15:55:39.532Z,19.00
2018-04-23T15:58:05.963Z,19.10
2018-04-23T16:00:32.457Z,19.10
2018-04-23T16:02:58.883Z,19.20
2018-04-23T16:05:25.317Z,19.20
2018-04-23T16:07:51.731Z,19.10
2018-04-23T16:10:18.226Z,19.10
2018-04-23T16:12:45.473Z,18.90
2018-04-23T16:15:11.891Z,18.90
2018-04-23T16:17:38.449Z,18.90
2018-04-23T16:20:14.939Z,18.90
2018-04-23T16:22:41.549Z,19.00
2018-04-23T16:25:08.067Z,18.90
2018-04-23T16:27:34.477Z,19.00
2018-04-23T16:30:01.101Z,19.00
2018-04-23T16:32:27.515Z,19.00
2018-04-23T16:34:54.695Z,19.00
2018-04-23T16:37:21.163Z,19.00
2018-04-23T16:39:47.627Z,18.90
2018-04-23T16:42:14.135Z,18.80
2018-04-23T16:44:40.538Z,18.80
2018-04-23T16:47:07.051Z,18.90
2018-04-23T16:49:33.439Z,18.90
2018-04-23T16:51:59.890Z,19.00
2018-04-23T16:54:26.361Z,18.80
2018-04-23T16:56:52.800Z,18.90
2018-04-23T16:59:19.238Z,18.70
2018-04-23T17:01:45.702Z,18.70
2018-04-23T17:04:12.252Z,18.70
2018-04-23T17:06:38.688Z,18.60
2018-04-23T17:09:06.145Z,18.60
2018-04-23T17:11:32.597Z,18.60
2018-04-23T17:13:59.016Z,18.60
2018-04-23T17:16:25.452Z,18.60
2018-04-23T17:18:52.643Z,18.70
2018-04-23T17:21:19.149Z,18.70
2018-04-23T17:23:45.627Z,18.70
2018-04-23T17:26:12.049Z,18.80
2018-04-23T17:28:38.515Z,18.70
2018-04-23T17:31:04.976Z,18.70
2018-04-23T17:33:31.409Z,18.60
2018-04-23T17:35:57.903Z,18.60
2018-04-23T17:38:24.400Z,18.60
2018-04-23T17:40:50.861Z,18.50
2018-04-23T17:43:17.322Z,18.40
2018-04-23T17:45:43.762Z,18.30
2018-04-23T17:48:11.090Z,18.30
2018-04-23T17:50:38.537Z,18.40
2018-04-23T17:53:05.001Z,18.40
2018-04-23T17:55:31.569Z,18.30
2018-04-23T17:57:58.055Z,18.20
2018-04-23T18:00:24.517Z,18.30
2018-04-23T18:02:50.952Z,18.30
2018-04-23T18:05:17.446Z,18.30
2018-04-23T18:07:43.936Z,18.30
2018-04-23T18:10:10.503Z,18.40
2018-04-23T18:12:36.957Z,18.50
2018-04-23T18:15:03.414Z,18.50
2018-04-23T18:17:30.665Z,18.50
2018-04-23T18:19:57.055Z,18.50
2018-04-23T18:22:23.766Z,18.50
2018-04-23T18:24:51.101Z,18.40
2018-04-23T18:27:17.703Z,18.30
2018-04-23T18:29:44.196Z,18.20
2018-04-23T18:32:17.660Z,18.20
2018-04-23T18:34:44.344Z,18.10
2018-04-23T18:37:10.837Z,18.10
2018-04-23T18:39:37.680Z,18.10
2018-04-23T18:42:04.248Z,18.10
2018-04-23T18:44:30.753Z,18.10
2018-04-23T18:46:58.224Z,17.90
2018-04-23T18:49:25.509Z,18.00
2018-04-23T18:51:52.020Z,18.00
2018-04-23T18:54:18.544Z,18.00
2018-04-23T18:56:45.135Z,18.00
2018-04-23T18:59:11.644Z,17.90
2018-04-23T19:01:39.215Z,17.90
2018-04-23T19:04:06.610Z,17.90
2018-04-23T19:06:33.330Z,17.90
2018-04-23T19:08:59.840Z,17.90
2018-04-23T19:11:26.344Z,17.90
2018-04-23T19:13:53.418Z,17.80
2018-04-23T19:16:19.995Z,17.90
2018-04-23T19:18:46.438Z,17.80
2018-04-23T19:21:14.059Z,17.90
2018-04-23T19:23:40.533Z,17.90
2018-04-23T19:26:07.171Z,17.90
2018-04-23T19:28:33.662Z,17.90
2018-04-23T19:31:00.307Z,17.90
2018-04-23T19:33:26.861Z,17.80
2018-04-23T19:35:53.333Z,17.90
2018-04-23T19:38:19.843Z,18.00
2018-04-23T19:40:46.334Z,18.00
2018-04-23T19:43:13.833Z,17.90
2018-04-23T19:45:40.370Z,17.80
2018-04-23T19:48:07.670Z,17.80
2018-04-23T19:50:34.173Z,17.80
2018-04-23T19:53:01.689Z,17.80
2018-04-23T19:55:28.431Z,17.70
2018-04-23T19:57:55.049Z,17.70
2018-04-23T20:00:21.522Z,17.70
2018-04-23T20:02:48.006Z,17.70
2018-04-23T20:05:14.570Z,17.70
2018-04-23T20:07:41.796Z,17.70
2018-04-23T20:10:08.318Z,17.70
2018-04-23T20:12:34.872Z,17.70
2018-04-23T20:15:01.367Z,17.70
2018-04-23T20:17:27.858Z,17.70
2018-04-23T20:19:54.316Z,17.70
2018-04-23T20:22:21.513Z,17.70
2018-04-23T20:24:47.986Z,17.70
2018-04-23T20:27:15.324Z,17.40
2018-04-23T20:29:42.577Z,17.30
2018-04-23T20:32:09.084Z,17.30
2018-04-23T20:34:35.673Z,17.20
2018-04-23T20:37:02.220Z,17.30
2018-04-23T20:39:28.797Z,17.30
2018-04-23T20:41:55.362Z,17.20
2018-04-23T20:44:21.899Z,17.10
2018-04-23T20:46:48.302Z,17.10
2018-04-23T20:49:14.875Z,17.10
2018-04-23T20:51:42.145Z,17.10
2018-04-23T20:54:08.585Z,17.00
2018-04-23T20:56:35.045Z,17.10
2018-04-23T20:59:03.635Z,17.10
2018-04-23T21:01:30.251Z,17.10
2018-04-23T21:03:56.697Z,17.00
2018-04-23T21:06:23.188Z,17.00
2018-04-23T21:08:51.321Z,16.90
2018-04-23T21:11:17.825Z,17.00
2018-04-23T21:13:44.306Z,16.90
2018-04-23T21:16:11.782Z,16.90
2018-04-23T21:18:38.962Z,16.90
2018-04-23T21:21:05.474Z,16.90
2018-04-23T21:23:31.964Z,16.90
2018-04-23T21:25:59.497Z,16.70
2018-04-23T21:28:25.972Z,16.80
2018-04-23T21:30:53.256Z,16.90
2018-04-23T21:33:19.729Z,16.80
2018-04-23T21:35:46.903Z,16.90
2018-04-23T21:38:14.128Z,16.80
2018-04-23T21:40:40.554Z,16.80
2018-04-23T21:43:07.145Z,16.80
2018-04-23T21:45:33.630Z,16.50
2018-04-23T21:48:00.779Z,16.20
2018-04-23T21:50:27.176Z,16.20
2018-04-23T21:52:53.600Z,16.20
2018-04-23T21:55:20.019Z,16.30
2018-04-23T21:57:46.448Z,16.30
2018-04-23T22:00:12.907Z,16.30
2018-04-23T22:02:39.435Z,16.30
2018-04-23T22:05:06.550Z,16.30
2018-04-23T22:07:40.748Z,16.30
2018-04-23T22:10:07.962Z,16.30
2018-04-23T22:12:34.410Z,16.30
2018-04-23T22:15:00.878Z,16.30
2018-04-23T22:17:27.269Z,16.30
2018-04-23T22:19:53.698Z,16.30
2018-04-23T22:22:20.108Z,16.20
2018-04-23T22:24:46.584Z,16.20
2018-04-23T22:27:13.066Z,16.10
2018-04-23T22:29:39.576Z,16.00
2018-04-23T22:32:06.001Z,16.00
2018-04-23T22:34:32.500Z,15.90
2018-04-23T22:36:58.988Z,15.80
2018-04-23T22:39:26.259Z,15.80
2018-04-23T22:41:52.792Z,15.80
2018-04-23T22:44:19.253Z,15.80
2018-04-23T22:46:45.694Z,15.80
2018-04-23T22:49:12.196Z,15.80
2018-04-23T22:51:38.576Z,15.80
2018-04-23T22:54:11.916Z,15.80
2018-04-23T22:56:38.336Z,15.80
2018-04-23T22:59:04.713Z,15.80
2018-04-23T23:01:31.183Z,15.90
2018-04-23T23:03:57.641Z,15.80
2018-04-23T23:06:24.082Z,15.70
2018-04-23T23:08:51.569Z,15.70
2018-04-23T23:11:18.787Z,15.70
2018-04-23T23:13:45.208Z,15.70
2018-04-23T23:16:12.153Z,15.60
2018-04-23T23:18:38.605Z,15.60
2018-04-23T23:21:05.013Z,15.60
2018-04-23T23:23:31.370Z,15.50
2018-04-23T23:25:57.941Z,15.50
2018-04-23T23:28:24.336Z,15.50
2018-04-23T23:30:50.728Z,15.40
2018-04-23T23:33:17.249Z,15.40
2018-04-23T23:35:43.649Z,15.20
2018-04-23T23:38:10.070Z,15.10
2018-04-23T23:40:36.497Z,15.20
2018-04-23T23:43:02.896Z,15.30
2018-04-23T23:45:29.305Z,15.30
2018-04-23T23:47:55.708Z,15.30
2018-04-23T23:50:22.296Z,15.30
2018-04-23T23:52:48.783Z,15.30
2018-04-23T23:55:15.922Z,15.30
2018-04-23T23:57:42.337Z,15.30
